Terminal Aerodrome Forecast
Issued by NWS

Home | Current Version | Previous Version | Text Only | Print | Product List | Glossary On
Versions: 1 2 3 4 5 6 7 8 9 10 11 12 13 14 15 16 17 18 19 20 21 22 23 24 25 26 27 28 29 30 31 32 33 34 35 36 37 38 39 40 41 42 43
000
FTAK31 PANC 072336
TAFACV
TAF
PACV 072336Z 0800/0824 08010KT P6SM -SN OVC040 WS020/09030KT
      TEMPO 0802/0806 5SM -RASN BKN025
     FM080600 09010G18KT 6SM -RA BR OVC025
     FM081200 12015G25KT 6SM -RA OVC025
     FM082100 12010G18KT P6SM -SHRA BKN035=

USA.gov is the U.S. government's official web portal to all federal, state and local government web resources and services.